createdAt,value
2019-02-08T00:03:23.570Z,3.12
2019-02-08T00:08:26.012Z,3.22
2019-02-08T00:13:28.459Z,3.41
2019-02-08T00:18:30.926Z,3.37
2019-02-08T00:23:33.445Z,3.61
2019-02-08T00:28:35.877Z,3.68
2019-02-08T00:33:38.321Z,3.70
2019-02-08T00:38:40.765Z,3.66
2019-02-08T00:43:43.200Z,3.68
2019-02-08T00:48:45.639Z,3.75
2019-02-08T00:53:48.092Z,3.95
2019-02-08T00:58:50.526Z,3.90
2019-02-08T01:03:52.968Z,3.93
2019-02-08T01:08:57.147Z,4.06
2019-02-08T01:13:57.877Z,4.00
2019-02-08T01:19:00.330Z,4.03
2019-02-08T01:24:02.773Z,3.93
2019-02-08T01:29:05.235Z,3.96
2019-02-08T01:34:07.690Z,4.00
2019-02-08T01:39:10.140Z,3.89
2019-02-08T01:44:12.591Z,4.02
2019-02-08T01:49:15.041Z,4.22
2019-02-08T01:54:17.494Z,4.29
2019-02-08T01:59:19.937Z,4.44
2019-02-08T02:04:23.044Z,4.43
2019-02-08T02:09:25.504Z,4.34
2019-02-08T02:14:27.943Z,4.33
2019-02-08T02:19:30.382Z,4.48
2019-02-08T02:24:33.093Z,4.39
2019-02-08T02:29:35.529Z,4.49
2019-02-08T02:34:38.007Z,4.47
2019-02-08T02:39:40.450Z,4.47
2019-02-08T02:44:43.026Z,4.55
2019-02-08T02:49:45.468Z,4.52
2019-02-08T02:54:47.920Z,4.49
2019-02-08T02:59:50.365Z,4.51
2019-02-08T03:04:52.803Z,4.54
2019-02-08T03:09:55.253Z,4.60
2019-02-08T03:14:57.695Z,4.65
2019-02-08T03:20:00.271Z,4.69
2019-02-08T03:25:02.584Z,4.73
2019-02-08T03:30:08.021Z,4.72
2019-02-08T03:35:10.510Z,4.72
2019-02-08T03:40:12.903Z,4.75
2019-02-08T03:45:15.410Z,4.84
2019-02-08T03:50:23.722Z,4.88
2019-02-08T03:55:26.179Z,4.78
2019-02-08T04:00:31.607Z,4.91
2019-02-08T04:05:34.049Z,4.91
2019-02-08T04:10:36.489Z,5.02
2019-02-08T04:15:38.928Z,4.99
2019-02-08T04:20:41.382Z,4.88
2019-02-08T04:25:43.847Z,5.12
2019-02-08T04:30:46.305Z,5.41
2019-02-08T04:35:48.755Z,5.58
2019-02-08T04:40:51.198Z,5.73
2019-02-08T04:45:53.639Z,5.81
2019-02-08T04:50:56.080Z,5.83
2019-02-08T04:55:58.513Z,5.93
2019-02-08T05:01:00.951Z,5.99
2019-02-08T05:06:03.385Z,5.96
2019-02-08T05:11:05.834Z,6.06
2019-02-08T05:16:08.288Z,6.12
2019-02-08T05:21:10.752Z,6.17
2019-02-08T05:26:13.199Z,6.20
2019-02-08T05:31:15.628Z,6.26
2019-02-08T05:36:18.124Z,6.29
2019-02-08T05:41:20.522Z,6.27
2019-02-08T05:46:22.964Z,6.33
2019-02-08T05:51:25.413Z,6.28
2019-02-08T05:56:27.853Z,6.35
2019-02-08T06:01:30.294Z,6.37
2019-02-08T06:06:32.729Z,6.36
2019-02-08T06:11:35.192Z,6.34
2019-02-08T06:16:37.681Z,6.31
2019-02-08T06:21:40.116Z,6.34
2019-02-08T06:26:42.560Z,6.29
2019-02-08T06:31:45.024Z,6.17
2019-02-08T06:36:47.479Z,6.00
2019-02-08T06:41:49.918Z,5.96
2019-02-08T06:46:52.359Z,5.97
2019-02-08T06:51:54.814Z,6.10
2019-02-08T06:56:57.252Z,6.12
2019-02-08T07:02:02.643Z,5.89
2019-02-08T07:07:05.079Z,5.85
2019-02-08T07:12:13.182Z,5.84
2019-02-08T07:17:15.648Z,5.63
2019-02-08T07:22:20.653Z,5.61
2019-02-08T07:27:32.125Z,5.81
2019-02-08T07:32:40.432Z,6.34
2019-02-08T07:37:42.868Z,6.58
2019-02-08T07:42:45.321Z,6.90
2019-02-08T07:47:50.741Z,7.27
2019-02-08T07:53:02.383Z,7.57
2019-02-08T07:58:23.176Z,7.81
2019-02-08T08:03:34.522Z,7.99
2019-02-08T08:08:45.780Z,8.08
2019-02-08T08:13:48.239Z,8.43
2019-02-08T08:18:50.674Z,8.63
2019-02-08T08:23:53.142Z,8.98
2019-02-08T08:29:14.002Z,9.09
2019-02-08T08:34:28.455Z,8.97
2019-02-08T08:39:45.878Z,9.04
2019-02-08T08:44:57.413Z,9.35
2019-02-08T08:50:30.752Z,9.47
2019-02-08T08:55:42.546Z,9.61
2019-02-08T09:01:05.450Z,9.63
2019-02-08T09:06:16.563Z,9.79
2019-02-08T09:11:46.313Z,9.88
2019-02-08T09:16:51.845Z,9.97
2019-02-08T09:22:09.352Z,10.19
2019-02-08T09:27:20.813Z,10.94
2019-02-08T09:32:47.462Z,10.77
2019-02-08T09:37:52.579Z,10.85
2019-02-08T09:43:22.457Z,11.01
2019-02-08T09:48:45.954Z,10.86
2019-02-08T09:54:19.334Z,10.75
2019-02-08T09:59:52.150Z,10.53
2019-02-08T10:05:03.223Z,10.81
2019-02-08T10:10:14.638Z,10.81
2019-02-08T10:15:32.439Z,11.11
2019-02-08T10:20:54.169Z,11.59
2019-02-08T10:26:14.006Z,11.91
2019-02-08T10:31:44.396Z,12.24
2019-02-08T10:37:01.811Z,12.12
2019-02-08T10:42:28.313Z,12.12
2019-02-08T10:48:01.741Z,12.48
2019-02-08T10:53:25.862Z,12.69
2019-02-08T10:58:33.987Z,13.31
2019-02-08T11:03:55.308Z,13.32
2019-02-08T11:09:16.105Z,13.05
2019-02-08T11:14:37.217Z,13.70
2019-02-08T11:19:39.154Z,13.76
2019-02-08T11:24:41.610Z,13.90
2019-02-08T11:29:44.271Z,13.76
2019-02-08T11:34:46.739Z,13.45
2019-02-08T11:39:49.202Z,13.29
2019-02-08T11:44:51.688Z,13.68
2019-02-08T11:49:54.202Z,14.14
2019-02-08T11:54:56.665Z,13.93
2019-02-08T11:59:59.117Z,13.86
2019-02-08T12:05:01.574Z,13.99
2019-02-08T12:10:04.015Z,13.81
2019-02-08T12:15:06.465Z,13.61
2019-02-08T12:20:08.920Z,13.65
2019-02-08T12:25:11.382Z,13.89
2019-02-08T12:30:16.776Z,13.89
2019-02-08T12:35:19.370Z,13.69
2019-02-08T12:40:21.830Z,13.33
2019-02-08T12:45:24.299Z,13.95
2019-02-08T12:50:26.817Z,14.07
2019-02-08T12:55:29.258Z,13.55
2019-02-08T13:00:31.726Z,13.39
2019-02-08T13:05:34.185Z,13.25
2019-02-08T13:10:36.645Z,13.68
2019-02-08T13:15:39.125Z,13.58
2019-02-08T13:20:41.614Z,13.20
2019-02-08T13:25:44.477Z,13.18
2019-02-08T13:30:46.921Z,12.98
2019-02-08T13:35:49.375Z,12.82
2019-02-08T13:40:51.828Z,12.64
2019-02-08T13:45:54.305Z,12.51
2019-02-08T13:50:56.766Z,12.49
2019-02-08T13:55:59.238Z,12.44
2019-02-08T14:01:01.716Z,12.45
2019-02-08T14:06:04.182Z,12.38
2019-02-08T14:11:06.635Z,12.29
2019-02-08T14:16:09.083Z,12.38
2019-02-08T14:21:11.562Z,12.40
2019-02-08T14:26:14.028Z,12.20
2019-02-08T14:31:16.534Z,12.08
2019-02-08T14:36:19.011Z,11.79
2019-02-08T14:41:21.444Z,11.69
2019-02-08T14:46:23.910Z,11.49
2019-02-08T14:51:26.365Z,11.38
2019-02-08T14:56:28.827Z,11.38
2019-02-08T15:01:31.267Z,11.23
2019-02-08T15:06:33.781Z,11.05
2019-02-08T15:11:36.194Z,11.01
2019-02-08T15:16:38.646Z,10.94
2019-02-08T15:21:41.432Z,10.81
2019-02-08T15:26:43.901Z,10.75
2019-02-08T15:31:46.352Z,10.60
2019-02-08T15:36:49.304Z,10.56
2019-02-08T15:41:51.242Z,10.52
2019-02-08T15:46:53.698Z,10.39
2019-02-08T15:51:56.143Z,10.27
2019-02-08T15:56:58.603Z,10.15
2019-02-08T16:02:01.084Z,9.93
2019-02-08T16:07:03.540Z,9.91
2019-02-08T16:12:05.999Z,9.83
2019-02-08T16:17:08.465Z,9.72
2019-02-08T16:22:10.911Z,9.58
2019-02-08T16:27:13.360Z,9.45
2019-02-08T16:32:16.353Z,9.49
2019-02-08T16:37:18.926Z,9.40
2019-02-08T16:42:21.375Z,9.31
2019-02-08T16:47:23.819Z,9.28
2019-02-08T16:52:26.288Z,9.22
2019-02-08T16:57:28.708Z,9.16
2019-02-08T17:02:31.175Z,9.07
2019-02-08T17:07:33.615Z,8.91
2019-02-08T17:12:36.092Z,8.63
2019-02-08T17:17:38.541Z,8.38
2019-02-08T17:22:40.983Z,8.26
2019-02-08T17:27:43.441Z,8.06
2019-02-08T17:32:45.885Z,7.75
2019-02-08T17:37:48.328Z,7.59
2019-02-08T17:42:50.806Z,7.47
2019-02-08T17:47:53.293Z,7.47
2019-02-08T17:52:56.491Z,7.26
2019-02-08T17:58:03.501Z,7.11
2019-02-08T18:03:01.421Z,7.01
2019-02-08T18:08:03.884Z,6.94
2019-02-08T18:13:06.338Z,6.81
2019-02-08T18:18:11.416Z,6.82
2019-02-08T18:23:14.018Z,6.67
2019-02-08T18:28:16.710Z,6.68
2019-02-08T18:33:18.914Z,6.79
2019-02-08T18:38:21.352Z,6.74
2019-02-08T18:43:23.786Z,6.79
2019-02-08T18:48:26.252Z,6.67
2019-02-08T18:53:28.699Z,6.79
2019-02-08T18:58:31.191Z,6.88
2019-02-08T19:03:33.673Z,7.07
2019-02-08T19:08:36.192Z,7.05
2019-02-08T19:13:38.661Z,7.21
2019-02-08T19:18:41.131Z,7.16
2019-02-08T19:23:43.587Z,7.20
2019-02-08T19:28:46.078Z,7.25
2019-02-08T19:33:48.518Z,7.38
2019-02-08T19:38:50.989Z,7.49
2019-02-08T19:43:53.448Z,7.51
2019-02-08T19:48:55.974Z,7.55
2019-02-08T19:53:58.429Z,7.56
2019-02-08T19:59:00.880Z,7.57
2019-02-08T20:04:03.352Z,7.53
2019-02-08T20:09:05.808Z,7.49
2019-02-08T20:14:08.284Z,7.49
2019-02-08T20:19:10.731Z,7.49
2019-02-08T20:24:13.198Z,7.44
2019-02-08T20:29:15.636Z,7.44
2019-02-08T20:34:18.087Z,7.42
2019-02-08T20:39:20.560Z,7.38
2019-02-08T20:44:23.049Z,7.39
2019-02-08T20:49:25.506Z,7.37
2019-02-08T20:54:27.949Z,7.32
2019-02-08T20:59:30.691Z,7.28
2019-02-08T21:04:33.161Z,7.33
2019-02-08T21:09:35.673Z,7.36
2019-02-08T21:14:38.129Z,7.41
2019-02-08T21:19:40.587Z,7.46
2019-02-08T21:24:43.425Z,7.49
2019-02-08T21:29:45.635Z,7.52
2019-02-08T21:34:48.093Z,7.53
2019-02-08T21:39:50.566Z,7.53
2019-02-08T21:44:53.064Z,7.51
2019-02-08T21:49:55.699Z,7.47
2019-02-08T21:54:58.189Z,7.41
2019-02-08T22:00:00.651Z,7.47
2019-02-08T22:05:03.117Z,7.34
2019-02-08T22:10:05.575Z,7.27
2019-02-08T22:15:08.045Z,7.22
2019-02-08T22:20:16.110Z,7.14
2019-02-08T22:25:18.606Z,7.02
2019-02-08T22:30:23.970Z,6.95
2019-02-08T22:35:26.413Z,7.02
2019-02-08T22:40:28.858Z,7.13
2019-02-08T22:45:31.298Z,7.18
2019-02-08T22:50:33.738Z,7.13
2019-02-08T22:55:36.180Z,7.09
2019-02-08T23:00:41.422Z,7.19
2019-02-08T23:05:45.516Z,7.45
2019-02-08T23:10:46.290Z,7.52
2019-02-08T23:15:48.748Z,7.49
2019-02-08T23:20:51.192Z,7.36
2019-02-08T23:25:53.638Z,7.27
2019-02-08T23:30:56.110Z,7.23
2019-02-08T23:35:58.532Z,7.36
2019-02-08T23:41:00.970Z,7.47
2019-02-08T23:46:03.417Z,7.50
2019-02-08T23:51:05.852Z,7.60
2019-02-08T23:56:08.322Z,7.65
